createdAt,value
2023-07-11T00:00:57.510Z,22.10
2023-07-11T00:03:24.689Z,22.10
2023-07-11T00:05:59.317Z,22.10
2023-07-11T00:08:26.185Z,22.00
2023-07-11T00:10:54.416Z,21.90
2023-07-11T00:13:21.335Z,21.90
2023-07-11T00:15:56.472Z,21.90
2023-07-11T00:18:23.506Z,21.80
2023-07-11T00:20:50.384Z,21.80
2023-07-11T00:23:17.272Z,21.80
2023-07-11T00:25:44.265Z,21.70
2023-07-11T00:28:12.870Z,21.70
2023-07-11T00:30:39.848Z,21.70
2023-07-11T00:33:06.891Z,21.60
2023-07-11T00:35:33.781Z,21.60
2023-07-11T00:38:00.770Z,21.50
2023-07-11T00:40:27.697Z,21.50
2023-07-11T00:42:55.180Z,21.50
2023-07-11T00:46:05.969Z,21.40
2023-07-11T00:48:35.326Z,21.40
2023-07-11T00:51:02.879Z,21.30
2023-07-11T00:53:31.146Z,21.30
2023-07-11T00:56:04.129Z,21.30
2023-07-11T00:58:33.874Z,21.20
2023-07-11T01:01:03.351Z,21.20
2023-07-11T01:03:30.558Z,21.10
2023-07-11T01:05:58.265Z,21.10
2023-07-11T01:08:25.739Z,21.10
2023-07-11T01:10:52.762Z,21.00
2023-07-11T01:13:19.713Z,21.00
2023-07-11T01:15:47.435Z,20.90
2023-07-11T01:18:15.848Z,20.90
2023-07-11T01:20:42.992Z,20.90
2023-07-11T01:23:11.774Z,20.80
2023-07-11T01:25:38.936Z,20.80
2023-07-11T01:28:06.506Z,20.70
2023-07-11T01:30:33.756Z,20.70
2023-07-11T01:33:01.457Z,20.70
2023-07-11T01:35:28.589Z,20.70
2023-07-11T01:37:56.374Z,20.60
2023-07-11T01:40:24.931Z,20.60
2023-07-11T01:42:53.455Z,20.60
2023-07-11T01:45:21.477Z,20.60
2023-07-11T01:47:49.695Z,20.50
2023-07-11T01:50:16.695Z,20.40
2023-07-11T01:52:43.501Z,20.40
2023-07-11T01:55:10.856Z,20.40
2023-07-11T01:57:39.044Z,20.40
2023-07-11T02:00:07.318Z,20.30
2023-07-11T02:02:34.248Z,20.30
2023-07-11T02:05:01.056Z,20.30
2023-07-11T02:07:27.859Z,20.20
2023-07-11T02:09:54.680Z,20.20
2023-07-11T02:12:21.489Z,20.20
2023-07-11T02:14:49.809Z,20.20
2023-07-11T02:17:16.980Z,20.20
2023-07-11T02:19:44.426Z,20.10
2023-07-11T02:22:11.350Z,20.10
2023-07-11T02:24:39.963Z,20.00
2023-07-11T02:27:06.955Z,20.00
2023-07-11T02:29:33.986Z,20.00
2023-07-11T02:32:02.233Z,20.00
2023-07-11T02:34:29.177Z,20.00
2023-07-11T02:36:56.009Z,19.90
2023-07-11T02:39:22.776Z,19.90
2023-07-11T02:41:49.615Z,19.90
2023-07-11T02:44:16.486Z,19.90
2023-07-11T02:46:43.422Z,19.80
2023-07-11T02:49:11.716Z,19.80
2023-07-11T02:51:38.516Z,19.80
2023-07-11T02:54:05.446Z,19.80
2023-07-11T02:56:32.317Z,19.70
2023-07-11T02:58:59.236Z,19.70
2023-07-11T03:01:26.068Z,19.70
2023-07-11T03:03:53.069Z,19.70
2023-07-11T03:06:21.590Z,19.70
2023-07-11T03:08:48.436Z,19.70
2023-07-11T03:11:15.256Z,19.70
2023-07-11T03:13:42.539Z,19.70
2023-07-11T03:16:09.930Z,19.60
2023-07-11T03:18:36.916Z,19.60
2023-07-11T03:21:04.166Z,19.60
2023-07-11T03:23:32.391Z,19.60
2023-07-11T03:25:59.285Z,19.60
2023-07-11T03:28:26.190Z,19.60
2023-07-11T03:30:53.102Z,19.60
2023-07-11T03:33:19.969Z,19.60
2023-07-11T03:35:49.496Z,19.60
2023-07-11T03:38:17.099Z,19.60
2023-07-11T03:40:45.350Z,19.60
2023-07-11T03:43:12.203Z,19.60
2023-07-11T03:45:41.472Z,19.70
2023-07-11T03:48:08.456Z,19.70
2023-07-11T03:50:35.225Z,19.70
2023-07-11T03:53:01.999Z,19.70
2023-07-11T03:55:28.826Z,19.80
2023-07-11T03:57:57.013Z,19.80
2023-07-11T04:00:23.831Z,19.80
2023-07-11T04:02:50.847Z,19.90
2023-07-11T04:05:18.045Z,19.90
2023-07-11T04:07:44.990Z,20.00
2023-07-11T04:10:11.825Z,20.00
2023-07-11T04:12:38.803Z,20.10
2023-07-11T04:15:08.255Z,20.10
2023-07-11T04:17:35.229Z,20.20
2023-07-11T04:20:02.224Z,20.20
2023-07-11T04:22:30.567Z,20.30
2023-07-11T04:24:57.480Z,20.30
2023-07-11T04:27:25.200Z,20.30
2023-07-11T04:29:52.169Z,20.40
2023-07-11T04:32:20.569Z,20.50
2023-07-11T04:34:47.471Z,20.50
2023-07-11T04:37:14.517Z,20.60
2023-07-11T04:39:41.640Z,20.60
2023-07-11T04:42:08.816Z,20.70
2023-07-11T04:44:35.612Z,20.80
2023-07-11T04:47:02.689Z,20.80
2023-07-11T04:49:30.887Z,20.90
2023-07-11T04:51:57.671Z,21.00
2023-07-11T04:54:26.934Z,21.10
2023-07-11T04:56:58.222Z,21.10
2023-07-11T04:59:25.809Z,21.20
2023-07-11T05:01:53.014Z,21.30
2023-07-11T05:04:20.036Z,21.30
2023-07-11T05:06:50.481Z,21.40
2023-07-11T05:09:18.023Z,21.50
2023-07-11T05:11:45.491Z,21.50
2023-07-11T05:14:12.470Z,21.60
2023-07-11T05:16:39.886Z,21.70
2023-07-11T05:19:06.725Z,21.70
2023-07-11T05:21:33.669Z,21.80
2023-07-11T05:24:02.365Z,21.90
2023-07-11T05:26:30.004Z,21.90
2023-07-11T05:28:56.969Z,22.00
2023-07-11T05:31:23.910Z,22.10
2023-07-11T05:33:53.458Z,22.10
2023-07-11T05:36:34.130Z,22.20
2023-07-11T05:39:05.987Z,22.30
2023-07-11T05:41:33.864Z,22.40
2023-07-11T05:44:00.765Z,22.50
2023-07-11T05:46:28.120Z,22.60
2023-07-11T05:48:56.514Z,22.60
2023-07-11T05:51:24.032Z,22.80
2023-07-11T05:53:51.727Z,22.80
2023-07-11T05:56:20.846Z,22.90
2023-07-11T05:58:48.855Z,23.00
2023-07-11T06:01:17.391Z,23.00
2023-07-11T06:03:44.678Z,23.20
2023-07-11T06:06:11.936Z,23.30
2023-07-11T06:08:39.213Z,23.30
2023-07-11T06:11:07.289Z,23.50
2023-07-11T06:13:37.377Z,23.60
2023-07-11T06:16:06.975Z,23.70
2023-07-11T06:18:35.917Z,23.80
2023-07-11T06:21:03.010Z,23.90
2023-07-11T06:23:29.877Z,24.00
2023-07-11T06:25:56.802Z,24.10
2023-07-11T06:28:23.681Z,24.20
2023-07-11T06:30:52.207Z,24.40
2023-07-11T06:33:19.081Z,24.50
2023-07-11T06:35:49.073Z,24.60
2023-07-11T06:38:15.999Z,24.70
2023-07-11T06:40:48.239Z,24.80
2023-07-11T06:43:15.159Z,25.00
2023-07-11T06:45:42.258Z,25.10
2023-07-11T06:48:10.504Z,25.10
2023-07-11T06:50:37.446Z,25.20
2023-07-11T06:53:04.298Z,25.30
2023-07-11T06:55:31.139Z,25.40
2023-07-11T06:57:57.980Z,25.40
2023-07-11T07:00:25.012Z,25.60
2023-07-11T07:02:51.922Z,25.60
2023-07-11T07:05:20.202Z,25.70
2023-07-11T07:07:47.129Z,25.80
2023-07-11T07:10:14.194Z,25.80
2023-07-11T07:12:41.347Z,25.90
2023-07-11T07:15:09.380Z,26.00
2023-07-11T07:17:36.255Z,26.00
2023-07-11T07:20:03.341Z,26.10
2023-07-11T07:22:31.487Z,26.20
2023-07-11T07:25:02.120Z,26.20
2023-07-11T07:27:33.159Z,26.30
2023-07-11T07:29:59.961Z,26.40
2023-07-11T07:32:26.856Z,26.50
2023-07-11T07:34:53.669Z,26.50
2023-07-11T07:37:20.437Z,26.50
2023-07-11T07:39:48.800Z,26.70
2023-07-11T07:42:15.678Z,26.70
2023-07-11T07:44:42.668Z,26.80
2023-07-11T07:47:09.640Z,26.80
2023-07-11T07:49:49.270Z,26.80
2023-07-11T07:52:21.415Z,26.90
2023-07-11T07:54:49.644Z,27.00
2023-07-11T07:57:16.510Z,27.00
2023-07-11T07:59:43.349Z,27.10
2023-07-11T08:02:10.628Z,27.10
2023-07-11T08:04:37.459Z,27.20
2023-07-11T08:07:04.810Z,27.30
2023-07-11T08:09:31.581Z,27.30
2023-07-11T08:12:07.354Z,27.40
2023-07-11T08:14:36.247Z,27.50
2023-07-11T08:17:03.565Z,27.60
2023-07-11T08:19:30.365Z,27.60
2023-07-11T08:21:57.249Z,27.70
2023-07-11T08:24:24.208Z,27.70
2023-07-11T08:26:51.438Z,27.80
2023-07-11T08:29:29.667Z,27.90
2023-07-11T08:31:57.260Z,28.00
2023-07-11T08:34:24.169Z,28.00
2023-07-11T08:36:51.098Z,28.10
2023-07-11T08:39:18.268Z,28.10
2023-07-11T08:41:46.772Z,28.10
2023-07-11T08:44:17.766Z,28.20
2023-07-11T08:46:52.466Z,28.30
2023-07-11T08:49:25.195Z,28.40
2023-07-11T08:51:54.627Z,28.50
2023-07-11T08:54:28.464Z,28.60
2023-07-11T08:56:57.464Z,28.70
2023-07-11T08:59:30.662Z,28.80
2023-07-11T09:02:02.753Z,28.90
2023-07-11T09:04:31.456Z,28.90
2023-07-11T09:07:03.624Z,28.90
2023-07-11T09:09:30.477Z,29.00
2023-07-11T09:12:14.031Z,29.00
2023-07-11T09:14:50.823Z,29.10
2023-07-11T09:17:27.691Z,29.20
2023-07-11T09:20:12.231Z,29.30
2023-07-11T09:22:48.476Z,29.40
2023-07-11T09:25:19.558Z,29.40
2023-07-11T09:27:51.907Z,29.40
2023-07-11T09:30:23.446Z,29.50
2023-07-11T09:32:52.355Z,29.50
2023-07-11T09:35:26.084Z,29.50
2023-07-11T09:37:58.826Z,29.60
2023-07-11T09:40:33.647Z,29.70
2023-07-11T09:43:01.359Z,29.90
2023-07-11T09:45:33.149Z,30.00
2023-07-11T09:48:15.404Z,30.00
2023-07-11T09:51:06.828Z,30.10
2023-07-11T09:53:42.897Z,30.10
2023-07-11T09:56:13.577Z,30.20
2023-07-11T09:58:46.102Z,30.30
2023-07-11T10:01:19.681Z,30.40
2023-07-11T10:03:48.077Z,30.60
2023-07-11T10:06:46.403Z,30.70
2023-07-11T10:09:23.424Z,30.80
2023-07-11T10:11:55.414Z,31.00
2023-07-11T10:14:26.801Z,31.10
2023-07-11T10:16:56.157Z,31.30
2023-07-11T10:19:24.641Z,31.30
2023-07-11T10:21:52.984Z,31.40
2023-07-11T10:24:23.026Z,31.50
2023-07-11T10:26:55.889Z,31.60
2023-07-11T10:29:28.416Z,31.70
2023-07-11T10:31:58.685Z,31.70
2023-07-11T10:34:43.051Z,31.70
2023-07-11T10:37:14.394Z,31.80
2023-07-11T10:39:45.405Z,31.90
2023-07-11T10:42:25.198Z,31.80
2023-07-11T10:44:58.961Z,31.80
2023-07-11T10:47:31.916Z,31.70
2023-07-11T10:50:01.363Z,31.60
2023-07-11T10:52:29.638Z,31.60
2023-07-11T10:55:02.370Z,31.60
2023-07-11T10:57:43.383Z,31.60
2023-07-11T11:00:16.199Z,31.70
2023-07-11T11:02:56.847Z,31.90
2023-07-11T11:05:32.004Z,32.00
2023-07-11T11:08:03.311Z,32.10
2023-07-11T11:10:40.246Z,32.20
2023-07-11T11:13:19.515Z,32.30
2023-07-11T11:15:52.342Z,32.30
2023-07-11T11:18:37.428Z,32.20
2023-07-11T11:21:21.192Z,32.20
2023-07-11T11:24:07.007Z,32.30
2023-07-11T11:26:39.147Z,32.30
2023-07-11T11:29:17.136Z,32.30
2023-07-11T11:34:30.968Z,32.40
2023-07-11T11:37:07.650Z,32.50
2023-07-11T11:39:43.551Z,32.50
2023-07-11T11:42:16.016Z,32.50
2023-07-11T11:50:39.732Z,32.60
2023-07-11T11:55:25.461Z,32.90
2023-07-11T11:57:53.289Z,33.00
2023-07-11T12:00:39.765Z,33.00
2023-07-11T12:03:20.766Z,33.10
2023-07-11T12:05:53.522Z,33.30
2023-07-11T12:08:31.578Z,33.40
2023-07-11T12:11:29.007Z,33.60
2023-07-11T12:14:23.907Z,33.80
2023-07-11T12:16:50.767Z,33.90
2023-07-11T12:19:33.207Z,33.90
2023-07-11T12:22:02.870Z,34.10
2023-07-11T12:24:45.470Z,34.20
2023-07-11T12:27:42.037Z,34.20
2023-07-11T12:30:40.588Z,34.20
2023-07-11T12:33:32.499Z,34.20
2023-07-11T12:36:42.999Z,34.40
2023-07-11T12:39:24.055Z,34.80
2023-07-11T12:42:03.048Z,35.30
2023-07-11T12:44:32.257Z,35.60
2023-07-11T12:46:59.054Z,36.00
2023-07-11T12:49:27.819Z,36.40
2023-07-11T12:52:04.781Z,37.60
2023-07-11T12:54:31.655Z,39.10
2023-07-11T12:56:59.838Z,40.20
2023-07-11T12:59:28.310Z,40.50
2023-07-11T13:01:57.905Z,41.40
2023-07-11T13:04:30.516Z,42.00
2023-07-11T13:06:57.676Z,41.00
2023-07-11T13:09:25.712Z,41.00
2023-07-11T13:11:53.452Z,42.20
2023-07-11T13:14:23.202Z,43.90
2023-07-11T13:16:50.693Z,45.50
2023-07-11T13:19:20.626Z,46.00
2023-07-11T13:21:50.013Z,46.20
2023-07-11T13:24:24.029Z,44.60
2023-07-11T13:26:51.337Z,44.10
2023-07-11T13:29:20.670Z,43.40
2023-07-11T13:32:04.213Z,41.90
2023-07-11T13:34:32.569Z,40.80
2023-07-11T13:36:59.682Z,40.90
2023-07-11T13:39:28.461Z,42.20
2023-07-11T13:41:56.802Z,42.90
2023-07-11T13:44:28.789Z,42.40
2023-07-11T13:46:57.234Z,43.60
2023-07-11T13:49:26.755Z,45.70
2023-07-11T13:51:59.218Z,47.40
2023-07-11T13:54:31.844Z,48.20
2023-07-11T13:56:58.857Z,49.00
2023-07-11T14:01:57.471Z,49.70
2023-07-11T14:04:27.852Z,49.00
2023-07-11T14:06:54.958Z,48.30
2023-07-11T14:09:22.177Z,47.00
2023-07-11T14:11:49.073Z,45.20
2023-07-11T14:14:29.198Z,43.60
2023-07-11T14:17:08.980Z,43.40
2023-07-11T14:19:36.753Z,45.10
2023-07-11T14:22:12.431Z,47.40
2023-07-11T14:24:42.951Z,47.90
2023-07-11T14:27:13.013Z,48.00
2023-07-11T14:29:41.684Z,46.90
2023-07-11T14:32:13.857Z,45.80
2023-07-11T14:34:40.949Z,45.80
2023-07-11T14:37:14.377Z,45.00
2023-07-11T14:39:41.138Z,46.60
2023-07-11T14:42:19.862Z,49.20
2023-07-11T14:44:46.772Z,51.10
2023-07-11T14:47:15.162Z,52.80
2023-07-11T14:49:42.072Z,54.70
2023-07-11T14:52:24.474Z,55.30
2023-07-11T14:57:14.865Z,54.60
2023-07-11T15:00:14.429Z,53.80
2023-07-11T15:02:43.053Z,53.30
2023-07-11T15:10:18.127Z,48.80
2023-07-11T15:17:50.088Z,51.60
2023-07-11T15:20:19.517Z,52.90
2023-07-11T15:22:48.731Z,52.10
2023-07-11T15:25:18.177Z,51.00
2023-07-11T15:27:45.585Z,50.20
2023-07-11T15:30:16.428Z,50.20
2023-07-11T15:32:43.796Z,49.50
2023-07-11T15:35:17.026Z,49.00
2023-07-11T15:37:44.520Z,48.90
2023-07-11T15:40:17.300Z,49.60
2023-07-11T15:42:45.455Z,50.80
2023-07-11T15:45:22.048Z,51.10
2023-07-11T15:47:49.441Z,50.80
2023-07-11T15:50:19.852Z,49.40
2023-07-11T15:52:46.751Z,48.90
2023-07-11T15:55:15.599Z,48.50
2023-07-11T15:57:43.150Z,48.00
2023-07-11T16:00:15.368Z,48.10
2023-07-11T16:02:42.375Z,48.00
2023-07-11T16:05:10.459Z,47.30
2023-07-11T16:07:39.312Z,47.10
2023-07-11T16:10:22.522Z,47.80
2023-07-11T16:12:49.382Z,47.40
2023-07-11T16:15:16.335Z,46.60
2023-07-11T16:17:45.956Z,46.00
2023-07-11T16:20:18.323Z,45.90
2023-07-11T16:22:47.317Z,46.20
2023-07-11T16:25:17.638Z,45.60
2023-07-11T16:27:54.465Z,45.70
2023-07-11T16:30:24.185Z,45.90
2023-07-11T16:32:52.145Z,46.60
2023-07-11T16:35:21.351Z,46.40
2023-07-11T16:37:49.670Z,46.30
2023-07-11T16:40:19.849Z,46.00
2023-07-11T16:42:46.929Z,46.10
2023-07-11T16:45:15.053Z,46.10
2023-07-11T16:47:42.765Z,45.70
2023-07-11T16:50:16.495Z,45.60
2023-07-11T16:52:43.757Z,46.20
2023-07-11T16:55:12.728Z,46.30
2023-07-11T16:57:40.788Z,46.90
2023-07-11T17:00:16.113Z,47.00
2023-07-11T17:02:43.641Z,46.30
2023-07-11T17:05:10.766Z,46.40
2023-07-11T17:07:38.458Z,46.80
2023-07-11T17:10:06.777Z,47.00
2023-07-11T17:12:35.083Z,46.80
2023-07-11T17:15:03.359Z,47.00
2023-07-11T17:17:30.995Z,46.50
2023-07-11T17:19:58.156Z,46.20
2023-07-11T17:22:25.638Z,45.40
2023-07-11T17:24:52.840Z,44.80
2023-07-11T17:27:22.255Z,44.10
2023-07-11T17:29:52.321Z,44.10
2023-07-11T17:32:21.017Z,44.40
2023-07-11T17:34:49.011Z,44.20
2023-07-11T17:37:24.599Z,43.40
2023-07-11T17:39:51.570Z,43.80
2023-07-11T17:42:18.708Z,43.80
2023-07-11T17:44:47.989Z,43.60
2023-07-11T17:49:54.826Z,44.10
2023-07-11T17:52:24.574Z,44.30
2023-07-11T17:54:52.067Z,44.80
2023-07-11T17:57:21.438Z,44.60
2023-07-11T17:59:48.390Z,44.20
2023-07-11T18:02:22.898Z,43.80
2023-07-11T18:04:52.416Z,43.70
2023-07-11T18:07:21.259Z,43.60
2023-07-11T18:09:48.598Z,42.70
2023-07-11T18:12:21.825Z,42.30
2023-07-11T18:14:49.224Z,42.60
2023-07-11T18:17:18.166Z,42.60
2023-07-11T18:19:47.170Z,42.20
2023-07-11T18:22:16.520Z,41.70
2023-07-11T18:24:43.761Z,41.60
2023-07-11T18:27:18.465Z,41.90
2023-07-11T18:29:46.832Z,41.30
2023-07-11T18:32:21.130Z,40.50
2023-07-11T18:34:51.332Z,40.60
2023-07-11T18:37:18.937Z,40.40
2023-07-11T18:39:47.054Z,39.90
2023-07-11T18:42:15.773Z,39.30
2023-07-11T18:44:42.916Z,38.50
2023-07-11T18:47:18.773Z,37.60
2023-07-11T18:49:46.323Z,36.90
2023-07-11T18:52:20.224Z,36.10
2023-07-11T18:54:47.040Z,35.60
2023-07-11T18:57:14.729Z,35.00
2023-07-11T18:59:42.273Z,34.60
2023-07-11T19:02:15.000Z,34.20
2023-07-11T19:04:42.200Z,34.00
2023-07-11T19:07:11.024Z,33.70
2023-07-11T19:09:39.162Z,33.40
2023-07-11T19:12:30.199Z,33.20
2023-07-11T19:14:59.558Z,33.00
2023-07-11T19:17:43.010Z,32.70
2023-07-11T19:20:18.235Z,32.60
2023-07-11T19:22:46.177Z,32.40
2023-07-11T19:25:16.204Z,32.20
2023-07-11T19:27:44.899Z,32.10
2023-07-11T19:30:30.277Z,31.90
2023-07-11T19:32:58.206Z,31.80
2023-07-11T19:35:27.949Z,31.60
2023-07-11T19:37:56.754Z,31.50
2023-07-11T19:40:26.593Z,31.40
2023-07-11T19:42:54.126Z,31.30
2023-07-11T19:45:23.446Z,31.20
2023-07-11T19:47:50.710Z,31.00
2023-07-11T19:50:32.236Z,30.90
2023-07-11T19:52:59.933Z,30.80
2023-07-11T19:55:28.854Z,30.70
2023-07-11T19:57:55.926Z,30.60
2023-07-11T20:00:30.158Z,30.50
2023-07-11T20:02:57.200Z,30.40
2023-07-11T20:05:26.227Z,30.30
2023-07-11T20:07:53.434Z,30.20
2023-07-11T20:10:33.894Z,30.20
2023-07-11T20:13:02.664Z,30.10
2023-07-11T20:15:29.799Z,30.00
2023-07-11T20:17:56.742Z,29.90
2023-07-11T20:20:33.848Z,29.90
2023-07-11T20:23:01.041Z,29.80
2023-07-11T20:25:27.859Z,29.80
2023-07-11T20:28:08.031Z,29.70
2023-07-11T20:30:36.936Z,29.70
2023-07-11T20:33:03.829Z,29.60
2023-07-11T20:35:34.148Z,29.50
2023-07-11T20:38:00.972Z,29.40
2023-07-11T20:40:30.100Z,29.30
2023-07-11T20:42:58.266Z,29.30
2023-07-11T20:45:26.451Z,29.20
2023-07-11T20:47:53.314Z,29.10
2023-07-11T20:50:30.285Z,29.10
2023-07-11T20:52:57.529Z,29.00
2023-07-11T20:55:24.321Z,29.00
2023-07-11T20:57:51.942Z,28.90
2023-07-11T21:00:25.816Z,28.80
2023-07-11T21:02:54.182Z,28.80
2023-07-11T21:05:22.906Z,28.80
2023-07-11T21:07:49.896Z,28.80
2023-07-11T21:10:20.616Z,28.80
2023-07-11T21:12:47.515Z,28.80
2023-07-11T21:15:14.694Z,28.70
2023-07-11T21:17:42.918Z,28.70
2023-07-11T21:20:16.649Z,28.70
2023-07-11T21:22:43.607Z,28.70
2023-07-11T21:25:10.611Z,28.70
2023-07-11T21:27:37.582Z,28.70
2023-07-11T21:30:19.964Z,28.70
2023-07-11T21:32:48.891Z,28.70
2023-07-11T21:35:18.139Z,28.70
2023-07-11T21:37:45.092Z,28.70
2023-07-11T21:40:21.273Z,28.70
2023-07-11T21:42:49.144Z,28.60
2023-07-11T21:45:16.624Z,28.60
2023-07-11T21:47:43.773Z,28.20
2023-07-11T21:50:34.592Z,26.90
2023-07-11T21:53:01.947Z,25.30
2023-07-11T21:55:31.355Z,24.10
2023-07-11T21:57:58.400Z,23.10
2023-07-11T22:00:27.259Z,20.70
2023-07-11T22:02:54.361Z,18.70
2023-07-11T22:05:22.968Z,17.70
2023-07-11T22:07:49.741Z,17.40
2023-07-11T22:10:25.071Z,17.20
2023-07-11T22:12:52.053Z,17.30
2023-07-11T22:15:18.909Z,17.40
2023-07-11T22:17:45.956Z,17.40
2023-07-11T22:20:16.497Z,17.50
2023-07-11T22:22:44.908Z,17.50
2023-07-11T22:25:12.371Z,17.60
2023-07-11T22:27:39.296Z,17.80
2023-07-11T22:30:19.474Z,17.80
2023-07-11T22:32:46.525Z,17.90
2023-07-11T22:35:13.657Z,17.90
2023-07-11T22:37:40.438Z,17.90
2023-07-11T22:40:32.086Z,17.90
2023-07-11T22:43:00.192Z,18.00
2023-07-11T22:45:27.517Z,18.00
2023-07-11T22:47:54.399Z,18.10
2023-07-11T22:50:24.366Z,18.10
2023-07-11T22:52:51.366Z,18.20
2023-07-11T22:55:20.798Z,18.20
2023-07-11T22:57:48.350Z,18.20
2023-07-11T23:00:17.464Z,18.20
2023-07-11T23:02:44.679Z,18.30
2023-07-11T23:05:12.188Z,18.40
2023-07-11T23:07:39.606Z,18.50
2023-07-11T23:10:26.955Z,18.50
2023-07-11T23:12:53.899Z,18.60
2023-07-11T23:15:21.441Z,18.60
2023-07-11T23:17:49.201Z,18.70
2023-07-11T23:20:23.032Z,18.70
2023-07-11T23:22:51.521Z,18.80
2023-07-11T23:25:20.584Z,18.80
2023-07-11T23:27:48.763Z,19.00
2023-07-11T23:30:28.111Z,19.10
2023-07-11T23:32:59.033Z,19.20
2023-07-11T23:38:12.905Z,19.30
2023-07-11T23:40:43.973Z,19.20
2023-07-11T23:43:19.538Z,19.20
2023-07-11T23:45:49.965Z,19.30
2023-07-11T23:48:21.769Z,19.30
2023-07-11T23:50:51.796Z,19.30
2023-07-11T23:53:23.057Z,19.20
2023-07-11T23:55:53.129Z,19.20
2023-07-11T23:58:27.896Z,19.20
